createdAt,value
2019-02-16T00:12:18.777Z,90.78
2019-02-16T00:27:51.859Z,92.69
2019-02-16T00:43:25.284Z,91.54
2019-02-16T00:58:58.965Z,92.58
2019-02-16T01:14:32.936Z,90.49
2019-02-16T01:30:06.284Z,90.94
2019-02-16T01:45:39.725Z,88.59
2019-02-16T02:01:12.657Z,86.17
2019-02-16T02:16:45.826Z,87.01
2019-02-16T02:32:18.850Z,88.63
2019-02-16T02:47:52.158Z,90.36
2019-02-16T03:03:25.162Z,94.49
2019-02-16T03:18:58.797Z,94.33
2019-02-16T03:34:42.370Z,93.46
2019-02-16T03:50:15.693Z,92.65
2019-02-16T04:05:48.879Z,93.67
2019-02-16T04:21:22.146Z,86.70
2019-02-16T04:36:55.065Z,81.09
2019-02-16T04:52:34.271Z,77.17
2019-02-16T05:08:02.973Z,78.07
2019-02-16T05:23:35.940Z,84.51
2019-02-16T05:39:09.082Z,91.97
2019-02-16T05:54:41.874Z,83.94
2019-02-16T06:10:15.081Z,66.13
2019-02-16T06:25:48.138Z,53.39
2019-02-16T06:41:20.941Z,48.87
2019-02-16T06:57:01.089Z,37.38
2019-02-16T07:12:33.996Z,34.64
2019-02-16T07:28:06.809Z,39.54
2019-02-16T07:43:48.068Z,38.51
2019-02-16T07:59:24.415Z,35.76
2019-02-16T08:31:12.624Z,35.38
2019-02-16T08:47:02.563Z,35.47
2019-02-16T09:02:39.590Z,33.82
2019-02-16T09:18:16.868Z,28.98
2019-02-16T09:34:08.305Z,31.67
2019-02-16T09:49:48.792Z,32.04
2019-02-16T10:21:38.593Z,29.87
2019-02-16T10:53:38.995Z,30.63
2019-02-16T11:09:35.514Z,31.50
2019-02-16T11:25:11.647Z,33.65
2019-02-16T11:40:50.573Z,32.15
2019-02-16T11:56:29.793Z,34.62
2019-02-16T12:12:07.805Z,34.05
2019-02-16T13:00:10.031Z,36.69
2019-02-16T13:15:47.259Z,37.11
2019-02-16T13:31:24.423Z,39.53
2019-02-16T13:47:04.665Z,40.70
2019-02-16T14:02:41.349Z,45.08
2019-02-16T14:18:14.534Z,47.49
2019-02-16T14:33:47.547Z,51.15
2019-02-16T14:49:20.856Z,56.66
2019-02-16T15:04:54.578Z,62.62
2019-02-16T15:20:30.989Z,69.24
2019-02-16T15:36:04.180Z,70.01
2019-02-16T15:51:37.397Z,70.94
2019-02-16T16:07:12.277Z,70.10
2019-02-16T16:22:50.540Z,72.92
2019-02-16T16:38:27.761Z,74.36
2019-02-16T16:54:03.872Z,74.12
2019-02-16T17:09:44.077Z,75.49
2019-02-16T17:25:18.891Z,76.46
2019-02-16T17:40:54.958Z,76.93
2019-02-16T17:56:31.113Z,76.14
2019-02-16T18:12:07.235Z,77.07
2019-02-16T18:27:45.768Z,77.29
2019-02-16T18:59:41.127Z,77.87
2019-02-16T19:15:30.212Z,78.67
2019-02-16T19:31:07.434Z,78.70
2019-02-16T19:46:47.006Z,78.64
2019-02-16T20:18:34.980Z,78.65
2019-02-16T20:34:12.380Z,78.48
2019-02-16T20:49:58.747Z,79.68
2019-02-16T21:05:41.000Z,79.67
2019-02-16T21:21:19.022Z,79.04
2019-02-16T21:36:57.314Z,80.57
2019-02-16T21:52:37.521Z,80.61
2019-02-16T22:08:31.854Z,80.72
2019-02-16T22:24:05.086Z,80.45
2019-02-16T22:39:38.166Z,80.51
2019-02-16T22:55:11.501Z,81.47
2019-02-16T23:10:44.250Z,81.66
2019-02-16T23:26:17.488Z,82.63
2019-02-16T23:41:50.902Z,82.91
2019-02-16T23:57:23.883Z,83.93
